createdAt,value
2018-09-06T00:00:22.466Z,78.38
2018-09-06T00:02:51.838Z,78.83
2018-09-06T00:05:21.638Z,78.38
2018-09-06T00:07:51.630Z,78.64
2018-09-06T00:10:21.337Z,78.67
2018-09-06T00:12:51.284Z,79.02
2018-09-06T00:15:20.733Z,77.72
2018-09-06T00:17:50.806Z,77.74
2018-09-06T00:20:20.209Z,77.39
2018-09-06T00:22:49.667Z,76.82
2018-09-06T00:25:19.098Z,76.16
2018-09-06T00:27:48.890Z,76.09
2018-09-06T00:30:18.591Z,76.02
2018-09-06T00:32:48.403Z,76.19
2018-09-06T00:35:18.143Z,76.17
2018-09-06T00:37:47.607Z,77.14
2018-09-06T00:40:16.974Z,76.82
2018-09-06T00:42:46.781Z,77.00
2018-09-06T00:45:16.505Z,77.15
2018-09-06T00:47:45.934Z,77.51
2018-09-06T00:50:18.353Z,77.86
2018-09-06T00:52:49.137Z,77.99
2018-09-06T00:55:19.650Z,77.91
2018-09-06T00:57:49.305Z,77.85
2018-09-06T01:00:18.756Z,77.72
2018-09-06T01:02:48.454Z,78.27
2018-09-06T01:05:18.146Z,78.18
2018-09-06T01:07:47.986Z,78.44
2018-09-06T01:10:17.455Z,78.86
2018-09-06T01:12:46.899Z,79.02
2018-09-06T01:15:16.783Z,79.05
2018-09-06T01:17:46.193Z,78.69
2018-09-06T01:20:15.581Z,78.56
2018-09-06T01:22:44.939Z,78.28
2018-09-06T01:25:14.369Z,79.24
2018-09-06T01:27:43.789Z,78.65
2018-09-06T01:30:13.191Z,78.98
2018-09-06T01:32:42.593Z,78.24
2018-09-06T01:35:12.065Z,78.54
2018-09-06T01:37:41.805Z,77.88
2018-09-06T01:40:11.263Z,77.32
2018-09-06T01:42:40.662Z,77.41
2018-09-06T01:45:10.061Z,76.95
2018-09-06T01:47:39.494Z,77.35
2018-09-06T01:50:09.350Z,77.49
2018-09-06T01:52:39.110Z,77.45
2018-09-06T01:55:08.850Z,77.18
2018-09-06T01:57:38.226Z,77.19
2018-09-06T02:00:08.073Z,77.81
2018-09-06T02:02:37.784Z,77.25
2018-09-06T02:05:07.691Z,77.90
2018-09-06T02:07:37.097Z,77.54
2018-09-06T02:10:06.558Z,77.92
2018-09-06T02:12:35.917Z,78.20
2018-09-06T02:15:05.334Z,78.20
2018-09-06T02:17:35.134Z,77.74
2018-09-06T02:20:04.601Z,78.15
2018-09-06T02:22:34.026Z,77.79
2018-09-06T02:25:03.755Z,77.73
2018-09-06T02:27:33.449Z,77.85
2018-09-06T02:30:02.833Z,78.89
2018-09-06T02:32:32.662Z,78.79
2018-09-06T02:35:02.076Z,80.14
2018-09-06T02:37:31.909Z,80.58
2018-09-06T02:40:01.367Z,80.29
2018-09-06T02:42:31.138Z,79.74
2018-09-06T02:45:00.580Z,79.46
2018-09-06T02:47:30.044Z,80.01
2018-09-06T02:50:04.752Z,80.29
2018-09-06T02:52:34.540Z,79.53
2018-09-06T02:55:03.953Z,79.54
2018-09-06T02:57:33.431Z,79.87
2018-09-06T03:00:03.193Z,79.85
2018-09-06T03:02:32.612Z,79.67
2018-09-06T03:05:01.989Z,79.63
2018-09-06T03:07:31.439Z,80.38
2018-09-06T03:10:01.239Z,80.09
2018-09-06T03:12:31.028Z,80.13
2018-09-06T03:15:00.484Z,80.40
2018-09-06T03:17:30.172Z,80.12
2018-09-06T03:19:59.604Z,80.85
2018-09-06T03:22:28.996Z,80.70
2018-09-06T03:24:58.766Z,81.53
2018-09-06T03:27:28.208Z,81.49
2018-09-06T03:29:58.004Z,82.26
2018-09-06T03:32:27.455Z,81.84
2018-09-06T03:34:57.221Z,82.09
2018-09-06T03:37:26.748Z,83.21
2018-09-06T03:39:56.789Z,83.60
2018-09-06T03:42:26.261Z,83.62
2018-09-06T03:44:56.056Z,83.42
2018-09-06T03:47:25.798Z,83.95
2018-09-06T03:49:55.384Z,83.16
2018-09-06T03:52:25.301Z,84.82
2018-09-06T03:54:54.962Z,84.99
2018-09-06T03:57:24.873Z,84.72
2018-09-06T03:59:55.109Z,85.29
2018-09-06T04:02:24.566Z,85.07
2018-09-06T04:04:54.368Z,85.86
2018-09-06T04:07:24.438Z,86.22
2018-09-06T04:09:54.854Z,86.09
2018-09-06T04:12:24.262Z,87.02
2018-09-06T04:14:53.720Z,86.13
2018-09-06T04:17:26.245Z,86.91
2018-09-06T04:19:55.822Z,88.15
2018-09-06T04:22:25.764Z,88.00
2018-09-06T04:24:55.672Z,88.01
2018-09-06T04:27:25.120Z,88.18
2018-09-06T04:29:54.673Z,88.04
2018-09-06T04:32:24.128Z,88.42
2018-09-06T04:34:54.145Z,88.25
2018-09-06T04:37:23.921Z,89.10
2018-09-06T04:39:53.484Z,89.18
2018-09-06T04:42:22.885Z,88.91
2018-09-06T04:44:52.628Z,89.33
2018-09-06T04:47:21.983Z,88.79
2018-09-06T04:49:51.401Z,88.56
2018-09-06T04:52:21.191Z,87.74
2018-09-06T04:54:50.724Z,87.36
2018-09-06T04:57:20.619Z,87.71
2018-09-06T04:59:50.067Z,87.38
2018-09-06T05:02:19.516Z,87.71
2018-09-06T05:04:48.971Z,87.56
2018-09-06T05:07:18.580Z,87.56
2018-09-06T05:09:48.084Z,87.02
2018-09-06T05:12:17.632Z,87.39
2018-09-06T05:14:47.012Z,87.54
2018-09-06T05:17:16.378Z,86.87
2018-09-06T05:19:45.785Z,87.28
2018-09-06T05:22:15.552Z,86.96
2018-09-06T05:24:44.983Z,86.31
2018-09-06T05:27:14.373Z,86.78
2018-09-06T05:29:43.744Z,86.22
2018-09-06T05:32:13.153Z,85.77
2018-09-06T05:34:42.585Z,85.49
2018-09-06T05:37:11.988Z,85.15
2018-09-06T05:39:41.852Z,85.41
2018-09-06T05:42:11.244Z,84.92
2018-09-06T05:44:41.239Z,84.59
2018-09-06T05:47:10.976Z,84.00
2018-09-06T05:49:40.411Z,83.69
2018-09-06T05:52:09.872Z,83.85
2018-09-06T05:54:39.475Z,83.28
2018-09-06T05:57:09.271Z,83.41
2018-09-06T05:59:39.166Z,83.43
2018-09-06T06:02:08.675Z,82.82
2018-09-06T06:04:38.045Z,82.57
2018-09-06T06:07:07.760Z,82.33
2018-09-06T06:09:37.179Z,81.70
2018-09-06T06:12:06.558Z,81.12
2018-09-06T06:14:35.972Z,81.18
2018-09-06T06:17:05.340Z,80.87
2018-09-06T06:19:34.770Z,81.12
2018-09-06T06:22:04.177Z,80.20
2018-09-06T06:24:33.875Z,80.49
2018-09-06T06:27:03.688Z,80.46
2018-09-06T06:29:33.052Z,79.42
2018-09-06T06:32:02.590Z,79.47
2018-09-06T06:34:32.332Z,79.07
2018-09-06T06:37:01.844Z,78.31
2018-09-06T06:39:31.220Z,78.41
2018-09-06T06:42:00.624Z,78.48
2018-09-06T06:44:30.012Z,78.24
2018-09-06T06:46:59.423Z,77.56
2018-09-06T06:49:29.219Z,77.15
2018-09-06T06:51:58.685Z,77.05
2018-09-06T06:54:28.087Z,76.72
2018-09-06T06:56:57.799Z,75.54
2018-09-06T06:59:27.668Z,74.96
2018-09-06T07:01:57.387Z,74.26
2018-09-06T07:04:26.874Z,74.24
2018-09-06T07:06:56.353Z,73.78
2018-09-06T07:09:26.107Z,74.49
2018-09-06T07:11:55.553Z,72.76
2018-09-06T07:14:25.429Z,73.44
2018-09-06T07:16:54.883Z,72.98
2018-09-06T07:19:24.633Z,72.82
2018-09-06T07:21:54.038Z,73.15
2018-09-06T07:24:23.503Z,71.78
2018-09-06T07:26:53.289Z,70.85
2018-09-06T07:29:23.121Z,70.16
2018-09-06T07:31:52.574Z,69.84
2018-09-06T07:34:22.020Z,70.13
2018-09-06T07:36:51.476Z,69.53
2018-09-06T07:39:20.923Z,70.02
2018-09-06T07:41:50.321Z,68.08
2018-09-06T07:44:20.084Z,68.30
2018-09-06T07:46:49.468Z,68.67
2018-09-06T07:49:19.272Z,67.83
2018-09-06T07:51:48.677Z,67.24
2018-09-06T07:54:18.098Z,66.95
2018-09-06T07:56:47.541Z,66.68
2018-09-06T07:59:16.960Z,66.40
2018-09-06T08:01:46.378Z,66.16
2018-09-06T08:04:15.849Z,65.80
2018-09-06T08:06:45.795Z,65.08
2018-09-06T08:09:15.267Z,65.16
2018-09-06T08:11:44.673Z,64.35
2018-09-06T08:14:14.502Z,64.04
2018-09-06T08:16:43.931Z,63.31
2018-09-06T08:19:13.448Z,63.78
2018-09-06T08:21:42.855Z,62.67
2018-09-06T08:24:12.680Z,61.38
2018-09-06T08:26:42.163Z,61.40
2018-09-06T08:29:11.552Z,60.04
2018-09-06T08:31:41.382Z,59.82
2018-09-06T08:34:11.139Z,60.12
2018-09-06T08:36:40.868Z,60.33
2018-09-06T08:39:12.503Z,60.38
2018-09-06T08:41:42.254Z,58.69
2018-09-06T08:44:11.998Z,58.53
2018-09-06T08:46:41.367Z,57.81
2018-09-06T08:49:11.103Z,58.18
2018-09-06T08:51:40.475Z,56.23
2018-09-06T08:54:09.882Z,55.96
2018-09-06T08:56:39.634Z,55.68
2018-09-06T08:59:08.993Z,55.83
2018-09-06T09:01:38.547Z,55.12
2018-09-06T09:04:08.414Z,54.86
2018-09-06T09:06:38.690Z,54.53
2018-09-06T09:09:14.403Z,54.41
2018-09-06T09:11:44.186Z,53.79
2018-09-06T09:14:13.589Z,54.20
2018-09-06T09:16:43.403Z,53.81
2018-09-06T09:19:12.830Z,54.22
2018-09-06T09:21:42.306Z,54.07
2018-09-06T09:24:11.984Z,54.04
2018-09-06T09:26:41.709Z,54.36
2018-09-06T09:29:11.414Z,53.15
2018-09-06T09:31:41.271Z,52.90
2018-09-06T09:34:10.987Z,52.91
2018-09-06T09:36:40.810Z,51.88
2018-09-06T09:39:11.285Z,50.92
2018-09-06T09:41:41.174Z,51.29
2018-09-06T09:44:10.897Z,51.58
2018-09-06T09:49:09.210Z,51.82
2018-09-06T09:51:38.976Z,50.16
2018-09-06T09:54:08.897Z,50.88
2018-09-06T09:56:38.800Z,49.64
2018-09-06T09:59:08.678Z,49.48
2018-09-06T10:01:44.122Z,49.46
2018-09-06T10:04:18.812Z,50.41
2018-09-06T10:07:52.182Z,49.72
2018-09-06T10:10:21.642Z,49.83
2018-09-06T10:12:51.482Z,49.18
2018-09-06T10:15:20.926Z,49.93
2018-09-06T10:17:50.631Z,48.93
2018-09-06T10:20:20.513Z,47.72
2018-09-06T10:22:50.352Z,48.05
2018-09-06T10:25:19.813Z,47.19
2018-09-06T10:27:49.453Z,47.35
2018-09-06T10:30:18.974Z,48.04
2018-09-06T10:32:48.814Z,47.82
2018-09-06T10:35:18.313Z,47.03
2018-09-06T10:37:47.752Z,46.30
2018-09-06T10:40:17.099Z,46.09
2018-09-06T10:42:46.965Z,46.03
2018-09-06T10:45:16.806Z,45.90
2018-09-06T10:47:46.619Z,45.96
2018-09-06T10:50:16.057Z,44.86
2018-09-06T10:52:45.878Z,45.23
2018-09-06T10:55:15.640Z,45.74
2018-09-06T10:57:45.532Z,45.71
2018-09-06T11:00:14.945Z,45.52
2018-09-06T11:02:44.818Z,44.62
2018-09-06T11:05:14.533Z,44.15
2018-09-06T11:07:44.320Z,42.80
2018-09-06T11:10:14.102Z,42.88
2018-09-06T11:12:43.526Z,43.05
2018-09-06T11:15:12.912Z,42.57
2018-09-06T11:17:42.698Z,42.62
2018-09-06T11:20:12.400Z,42.70
2018-09-06T11:22:42.304Z,42.48
2018-09-06T11:25:11.905Z,42.34
2018-09-06T11:27:41.689Z,42.70
2018-09-06T11:30:11.075Z,42.19
2018-09-06T11:32:40.885Z,42.20
2018-09-06T11:35:10.331Z,41.28
2018-09-06T11:37:40.125Z,41.93
2018-09-06T11:40:10.037Z,42.67
2018-09-06T11:42:39.755Z,42.44
2018-09-06T11:45:09.335Z,42.99
2018-09-06T11:47:38.778Z,42.80
2018-09-06T11:50:08.521Z,42.98
2018-09-06T11:52:37.932Z,42.37
2018-09-06T11:55:07.886Z,42.92
2018-09-06T11:57:37.340Z,42.47
2018-09-06T12:00:07.297Z,42.72
2018-09-06T12:02:37.056Z,41.96
2018-09-06T12:05:06.901Z,42.81
2018-09-06T12:07:36.677Z,42.93
2018-09-06T12:10:06.253Z,42.59
2018-09-06T12:12:35.979Z,42.06
2018-09-06T12:15:06.089Z,41.97
2018-09-06T12:17:35.491Z,42.04
2018-09-06T12:20:05.362Z,41.59
2018-09-06T12:22:34.759Z,40.46
2018-09-06T12:25:04.738Z,40.17
2018-09-06T12:27:34.605Z,39.80
2018-09-06T12:30:04.501Z,39.90
2018-09-06T12:32:33.962Z,39.41
2018-09-06T12:35:03.469Z,38.94
2018-09-06T12:37:33.207Z,38.83
2018-09-06T12:40:02.997Z,38.82
2018-09-06T12:42:33.109Z,38.92
2018-09-06T12:45:03.001Z,39.45
2018-09-06T12:47:32.671Z,39.86
2018-09-06T12:50:02.151Z,40.06
2018-09-06T12:52:31.947Z,39.13
2018-09-06T12:55:01.777Z,40.26
2018-09-06T12:57:31.164Z,40.12
2018-09-06T13:00:00.595Z,40.66
2018-09-06T13:02:30.101Z,39.99
2018-09-06T13:04:59.512Z,39.70
2018-09-06T13:07:29.293Z,39.58
2018-09-06T13:09:59.020Z,39.52
2018-09-06T13:12:28.760Z,38.15
2018-09-06T13:14:58.496Z,38.35
2018-09-06T13:17:27.908Z,38.25
2018-09-06T13:19:57.801Z,38.92
2018-09-06T13:22:27.685Z,38.79
2018-09-06T13:24:57.038Z,39.15
2018-09-06T13:27:26.814Z,38.38
2018-09-06T13:29:56.521Z,38.99
2018-09-06T13:32:26.285Z,38.34
2018-09-06T13:34:55.945Z,38.33
2018-09-06T13:37:25.361Z,38.31
2018-09-06T13:39:55.089Z,37.46
2018-09-06T13:42:24.848Z,37.17
2018-09-06T13:44:55.105Z,36.79
2018-09-06T13:47:24.905Z,35.54
2018-09-06T13:49:54.668Z,36.33
2018-09-06T13:52:24.484Z,37.74
2018-09-06T13:54:54.254Z,37.61
2018-09-06T13:57:23.660Z,37.65
2018-09-06T13:59:53.436Z,37.10
2018-09-06T14:02:22.877Z,36.78
2018-09-06T14:04:52.632Z,36.79
2018-09-06T14:07:22.444Z,37.37
2018-09-06T14:09:52.390Z,36.44
2018-09-06T14:12:22.161Z,37.16
2018-09-06T14:14:51.984Z,37.24
2018-09-06T14:17:21.439Z,37.74
2018-09-06T14:19:51.337Z,37.33
2018-09-06T14:22:21.077Z,37.34
2018-09-06T14:24:50.855Z,37.38
2018-09-06T14:27:20.680Z,37.77
2018-09-06T14:29:50.988Z,37.82
2018-09-06T14:32:20.773Z,37.06
2018-09-06T14:34:50.491Z,36.88
2018-09-06T14:37:20.249Z,37.39
2018-09-06T14:39:50.018Z,37.60
2018-09-06T14:42:19.715Z,36.83
2018-09-06T14:44:49.514Z,37.00
2018-09-06T14:47:19.212Z,36.83
2018-09-06T14:49:48.996Z,37.35
2018-09-06T14:52:18.763Z,37.70
2018-09-06T14:54:48.443Z,37.77
2018-09-06T14:57:18.381Z,37.39
2018-09-06T14:59:47.795Z,37.47
2018-09-06T15:02:17.229Z,37.00
2018-09-06T15:04:47.022Z,36.71
2018-09-06T15:07:16.716Z,37.55
2018-09-06T15:09:46.486Z,37.24
2018-09-06T15:12:16.455Z,37.88
2018-09-06T15:14:46.204Z,37.39
2018-09-06T15:17:15.953Z,37.38
2018-09-06T15:19:45.742Z,37.03
2018-09-06T15:22:15.515Z,37.71
2018-09-06T15:24:45.279Z,37.47
2018-09-06T15:27:15.220Z,38.36
2018-09-06T15:29:44.613Z,39.54
2018-09-06T15:32:14.371Z,38.46
2018-09-06T15:34:44.325Z,38.21
2018-09-06T15:37:13.785Z,38.50
2018-09-06T15:39:44.683Z,37.71
2018-09-06T15:42:17.641Z,37.17
2018-09-06T15:44:47.824Z,36.69
2018-09-06T15:47:17.975Z,38.01
2018-09-06T15:49:48.086Z,39.44
2018-09-06T15:52:18.207Z,41.32
2018-09-06T15:54:47.639Z,39.79
2018-09-06T15:57:17.319Z,41.49
2018-09-06T15:59:47.175Z,39.87
2018-09-06T16:02:16.966Z,41.05
2018-09-06T16:04:46.487Z,40.42
2018-09-06T16:07:15.971Z,38.93
2018-09-06T16:09:45.495Z,40.12
2018-09-06T16:12:15.357Z,39.12
2018-09-06T16:14:45.375Z,39.24
2018-09-06T16:17:15.101Z,39.40
2018-09-06T16:19:44.639Z,38.19
2018-09-06T16:22:14.075Z,39.37
2018-09-06T16:24:43.812Z,40.74
2018-09-06T16:27:14.452Z,38.58
2018-09-06T16:29:44.095Z,38.93
2018-09-06T16:32:13.673Z,39.12
2018-09-06T16:34:43.375Z,39.33
2018-09-06T16:37:13.075Z,39.50
2018-09-06T16:39:42.743Z,39.51
2018-09-06T16:42:12.350Z,39.39
2018-09-06T16:44:42.476Z,40.43
2018-09-06T16:47:12.099Z,41.23
2018-09-06T16:49:41.668Z,41.25
2018-09-06T16:52:11.243Z,41.36
2018-09-06T16:54:40.929Z,40.90
2018-09-06T16:57:10.853Z,41.53
2018-09-06T16:59:41.221Z,41.00
2018-09-06T17:02:11.291Z,40.85
2018-09-06T17:04:41.107Z,41.28
2018-09-06T17:07:11.177Z,41.50
2018-09-06T17:09:41.323Z,42.18
2018-09-06T17:12:11.656Z,42.95
2018-09-06T17:14:41.482Z,42.34
2018-09-06T17:17:11.288Z,42.04
2018-09-06T17:19:40.978Z,42.51
2018-09-06T17:22:11.114Z,42.08
2018-09-06T17:24:40.650Z,43.09
2018-09-06T17:27:10.309Z,43.56
2018-09-06T17:29:40.044Z,42.93
2018-09-06T17:32:09.713Z,42.83
2018-09-06T17:34:40.131Z,43.73
2018-09-06T17:37:09.815Z,43.61
2018-09-06T17:39:39.534Z,43.66
2018-09-06T17:42:09.180Z,44.11
2018-09-06T17:44:38.961Z,45.13
2018-09-06T17:47:08.518Z,46.09
2018-09-06T17:49:38.092Z,46.11
2018-09-06T17:52:08.130Z,47.15
2018-09-06T17:54:37.662Z,47.80
2018-09-06T17:57:07.355Z,48.09
2018-09-06T17:59:37.180Z,47.72
2018-09-06T18:02:06.790Z,48.99
2018-09-06T18:04:36.282Z,49.28
2018-09-06T18:07:06.101Z,49.71
2018-09-06T18:09:35.491Z,48.92
2018-09-06T18:12:05.277Z,50.51
2018-09-06T18:14:34.953Z,50.58
2018-09-06T18:17:07.515Z,51.18
2018-09-06T18:19:41.031Z,50.53
2018-09-06T18:22:10.854Z,51.49
2018-09-06T18:24:41.427Z,51.83
2018-09-06T18:27:11.077Z,53.66
2018-09-06T18:29:41.482Z,52.55
2018-09-06T18:32:11.022Z,52.65
2018-09-06T18:34:40.867Z,53.78
2018-09-06T18:37:10.641Z,53.04
2018-09-06T18:39:40.464Z,53.00
2018-09-06T18:42:10.425Z,52.82
2018-09-06T18:44:40.581Z,53.84
2018-09-06T18:47:13.534Z,53.43
2018-09-06T18:49:43.803Z,53.79
2018-09-06T18:52:13.649Z,55.52
2018-09-06T18:54:43.658Z,54.42
2018-09-06T18:57:16.061Z,54.89
2018-09-06T18:59:52.809Z,55.70
2018-09-06T19:02:22.333Z,54.52
2018-09-06T19:04:51.849Z,55.54
2018-09-06T19:07:21.634Z,56.26
2018-09-06T19:09:51.304Z,55.94
2018-09-06T19:12:21.185Z,55.96
2018-09-06T19:14:51.151Z,56.15
2018-09-06T19:17:25.291Z,57.15
2018-09-06T19:19:55.109Z,56.78
2018-09-06T19:22:25.018Z,56.65
2018-09-06T19:24:55.573Z,57.05
2018-09-06T19:27:26.981Z,57.35
2018-09-06T19:29:57.352Z,56.63
2018-09-06T19:32:28.497Z,57.34
2018-09-06T19:34:58.001Z,57.58
2018-09-06T19:37:27.929Z,58.16
2018-09-06T19:39:57.707Z,58.46
2018-09-06T19:42:27.745Z,57.96
2018-09-06T19:44:57.243Z,58.49
2018-09-06T19:47:26.687Z,58.19
2018-09-06T19:49:56.101Z,58.89
2018-09-06T19:52:25.998Z,58.92
2018-09-06T19:54:55.577Z,60.00
2018-09-06T19:57:25.069Z,60.50
2018-09-06T19:59:54.555Z,59.72
2018-09-06T20:02:23.937Z,59.82
2018-09-06T20:04:54.478Z,59.36
2018-09-06T20:07:24.156Z,60.64
2018-09-06T20:09:53.664Z,60.57
2018-09-06T20:12:23.451Z,60.78
2018-09-06T20:14:52.947Z,60.47
2018-09-06T20:17:22.753Z,60.87
2018-09-06T20:19:52.547Z,60.83
2018-09-06T20:22:22.149Z,60.88
2018-09-06T20:24:51.617Z,61.19
2018-09-06T20:27:21.316Z,60.88
2018-09-06T20:29:50.785Z,61.29
2018-09-06T20:32:20.653Z,61.29
2018-09-06T20:34:50.096Z,61.27
2018-09-06T20:37:19.889Z,61.34
2018-09-06T20:39:49.613Z,61.74
2018-09-06T20:42:18.988Z,61.61
2018-09-06T20:44:48.428Z,61.72
2018-09-06T20:47:17.854Z,62.06
2018-09-06T20:49:47.618Z,61.88
2018-09-06T20:52:17.409Z,61.52
2018-09-06T20:54:46.808Z,62.03
2018-09-06T20:57:16.498Z,62.58
2018-09-06T20:59:45.908Z,62.55
2018-09-06T21:02:20.539Z,61.88
2018-09-06T21:04:50.089Z,62.47
2018-09-06T21:07:19.535Z,61.56
2018-09-06T21:09:49.475Z,62.02
2018-09-06T21:12:19.296Z,62.04
2018-09-06T21:14:49.051Z,63.19
2018-09-06T21:17:18.496Z,62.94
2018-09-06T21:19:48.252Z,63.72
2018-09-06T21:22:17.695Z,63.89
2018-09-06T21:24:47.073Z,64.53
2018-09-06T21:27:16.956Z,64.40
2018-09-06T21:29:46.367Z,64.79
2018-09-06T21:32:16.185Z,65.36
2018-09-06T21:34:46.080Z,65.62
2018-09-06T21:37:15.597Z,66.35
2018-09-06T21:39:45.077Z,66.37
2018-09-06T21:42:14.651Z,66.38
2018-09-06T21:44:43.994Z,66.38
2018-09-06T21:47:13.688Z,66.58
2018-09-06T21:49:43.192Z,67.29
2018-09-06T21:52:12.932Z,67.53
2018-09-06T21:54:42.666Z,67.31
2018-09-06T21:57:12.069Z,66.85
2018-09-06T21:59:41.828Z,67.33
2018-09-06T22:02:16.731Z,67.09
2018-09-06T22:04:46.436Z,67.50
2018-09-06T22:07:16.201Z,67.25
2018-09-06T22:09:45.600Z,67.52
2018-09-06T22:12:16.960Z,67.66
2018-09-06T22:14:49.070Z,67.93
2018-09-06T22:17:18.877Z,68.21
2018-09-06T22:19:48.831Z,68.19
2018-09-06T22:22:18.288Z,68.41
2018-09-06T22:24:48.070Z,68.83
2018-09-06T22:27:17.487Z,68.66
2018-09-06T22:29:47.281Z,68.19
2018-09-06T22:32:16.695Z,68.49
2018-09-06T22:34:46.146Z,67.85
2018-09-06T22:37:15.911Z,67.58
2018-09-06T22:39:45.695Z,67.46
2018-09-06T22:42:15.741Z,67.93
2018-09-06T22:44:45.503Z,67.51
2018-09-06T22:47:15.272Z,67.65
2018-09-06T22:49:45.088Z,67.29
2018-09-06T22:52:14.553Z,67.32
2018-09-06T22:54:44.151Z,67.50
2018-09-06T22:57:14.099Z,67.45
2018-09-06T22:59:43.932Z,67.37
2018-09-06T23:02:13.784Z,67.28
2018-09-06T23:04:43.483Z,66.47
2018-09-06T23:07:13.313Z,66.66
2018-09-06T23:09:42.691Z,65.86
2018-09-06T23:12:12.497Z,66.09
2018-09-06T23:14:41.931Z,65.96
2018-09-06T23:17:11.313Z,65.42
2018-09-06T23:19:41.168Z,64.52
2018-09-06T23:22:10.936Z,64.66
2018-09-06T23:24:40.773Z,64.87
2018-09-06T23:27:10.567Z,65.16
2018-09-06T23:29:40.375Z,65.07
2018-09-06T23:32:10.219Z,65.64
2018-09-06T23:34:39.958Z,65.64
2018-09-06T23:37:09.700Z,66.29
2018-09-06T23:39:39.489Z,66.39
2018-09-06T23:42:09.282Z,66.85
2018-09-06T23:44:39.090Z,67.23
2018-09-06T23:47:09.457Z,67.05
2018-09-06T23:49:39.225Z,67.53
2018-09-06T23:52:09.017Z,67.64
2018-09-06T23:54:38.784Z,67.76
2018-09-06T23:57:08.670Z,67.67
2018-09-06T23:59:38.620Z,67.61
